Time;durP1;ratioP1;P1;durP2;ratioP2;P2;SDS_P1;SDS_P2;PMS_P1;PMS_P2;Temp;Humidity;BMP_temperature;BMP_pressure;BME280_temperature;BME280_humidity;BME280_pressure;Samples;Min_cycle;Max_cycle;Signal;HPM_P1;HPM_P2
2022/07/23 00:00:49;;;;;;;;;;;20.40;78.50;;;;;;5041193;28;19958;-68
2022/07/23 00:03:15;;;;;;;;;;;20.50;78.50;;;;;;5040819;28;19909;-68
2022/07/23 00:05:40;;;;;;;;;;;20.40;78.90;;;;;;5031689;28;20717;-69
2022/07/23 00:08:06;;;;;;;;;;;20.40;78.70;;;;;;5022804;28;19920;-69
2022/07/23 00:10:32;;;;;;;;;;;20.40;78.90;;;;;;5023083;28;19917;-69
2022/07/23 00:12:57;;;;;;;;;;;20.40;78.50;;;;;;5023124;28;20030;-68
2022/07/23 00:15:23;;;;;;;;;;;20.40;78.70;;;;;;5022342;28;19958;-68
2022/07/23 00:17:48;;;;;;;;;;;20.40;79.00;;;;;;5027734;28;19989;-68
2022/07/23 00:20:14;;;;;;;;;;;20.40;79.00;;;;;;5041009;28;19924;-68
2022/07/23 00:22:52;;;;;;;;;;;20.30;79.10;;;;;;5040770;28;19913;-68
2022/07/23 00:25:18;;;;;;;;;;;20.30;79.10;;;;;;5041253;28;20574;-68
2022/07/23 00:27:44;;;;;;;;;;;20.30;79.60;;;;;;5040560;28;19908;-68
2022/07/23 00:30:10;;;;;;;;;;;20.30;79.60;;;;;;5036737;28;19921;-68
2022/07/23 00:32:49;;;;;;;;;;;20.30;79.60;;;;;;5038965;28;19917;-68
2022/07/23 00:35:15;;;;;;;;;;;20.30;79.50;;;;;;5021775;28;19956;-68
2022/07/23 00:37:40;;;;;;;;;;;20.30;79.50;;;;;;5023122;28;19956;-68
2022/07/23 00:40:06;;;;;;;;;;;20.20;79.60;;;;;;5040629;28;19938;-68
2022/07/23 00:42:32;;;;;;;;;;;20.20;79.60;;;;;;5040217;28;19969;-68
2022/07/23 00:44:58;;;;;;;;;;;20.20;79.80;;;;;;5034468;28;19917;-68
2022/07/23 00:47:23;;;;;;;;;;;20.20;79.40;;;;;;5021920;28;19958;-68
2022/07/23 00:49:49;;;;;;;;;;;20.20;79.90;;;;;;5022347;28;19952;-68
2022/07/23 00:52:14;;;;;;;;;;;20.10;80.10;;;;;;5022245;28;19913;-68
2022/07/23 00:54:40;;;;;;;;;;;20.20;80.50;;;;;;5004308;28;20468;-68
2022/07/23 00:57:05;;;;;;;;;;;20.10;80.20;;;;;;5021518;28;19935;-68
2022/07/23 00:59:31;;;;;;;;;;;20.10;80.10;;;;;;5022835;28;20410;-68
2022/07/23 01:01:56;;;;;;;;;;;20.10;80.30;;;;;;5022364;28;19917;-69
2022/07/23 01:04:22;;;;;;;;;;;20.10;80.40;;;;;;5021908;28;19956;-68
2022/07/23 01:06:47;;;;;;;;;;;20.10;80.40;;;;;;5021777;28;19927;-68
2022/07/23 01:09:13;;;;;;;;;;;20.00;80.50;;;;;;5022325;28;19956;-68
2022/07/23 01:11:38;;;;;;;;;;;20.00;80.40;;;;;;5022526;28;20683;-68
2022/07/23 01:14:14;;;;;;;;;;;20.00;80.40;;;;;;5021840;28;19913;-68
2022/07/23 01:16:40;;;;;;;;;;;20.00;80.70;;;;;;5021926;28;20056;-68
2022/07/23 01:19:06;;;;;;;;;;;20.00;81.10;;;;;;5004324;28;19924;-68
2022/07/23 01:21:39;;;;;;;;;;;20.00;80.80;;;;;;5022166;28;19917;-68
2022/07/23 01:24:05;;;;;;;;;;;20.00;81.00;;;;;;5021896;28;20610;-68
2022/07/23 01:26:31;;;;;;;;;;;20.00;80.90;;;;;;5021918;28;20036;-68
2022/07/23 01:28:56;;;;;;;;;;;20.00;81.00;;;;;;5021816;28;19917;-68
2022/07/23 01:31:22;;;;;;;;;;;19.90;81.00;;;;;;5021564;28;19913;-68
2022/07/23 01:33:48;;;;;;;;;;;20.00;81.00;;;;;;5036431;28;19912;-68
2022/07/23 01:36:13;;;;;;;;;;;19.90;80.90;;;;;;5022008;28;19945;-68
2022/07/23 01:38:39;;;;;;;;;;;19.90;81.10;;;;;;5026847;28;19918;-69
2022/07/23 01:41:04;;;;;;;;;;;19.90;81.00;;;;;;5039792;28;19966;-68
2022/07/23 01:43:30;;;;;;;;;;;19.90;81.10;;;;;;5040078;28;19913;-68
2022/07/23 01:45:55;;;;;;;;;;;19.90;81.40;;;;;;5039391;28;19956;-68
2022/07/23 01:48:21;;;;;;;;;;;19.90;81.40;;;;;;5004521;28;19917;-68
2022/07/23 01:50:47;;;;;;;;;;;19.90;81.40;;;;;;5021707;28;20015;-68
2022/07/23 01:53:13;;;;;;;;;;;19.90;81.60;;;;;;5034055;28;19924;-68
2022/07/23 01:55:38;;;;;;;;;;;19.90;81.40;;;;;;5039984;28;19912;-68
2022/07/23 01:58:05;;;;;;;;;;;19.80;81.70;;;;;;5039738;28;20281;-68
2022/07/23 02:00:30;;;;;;;;;;;19.80;81.60;;;;;;5015406;28;19917;-68
2022/07/23 02:02:58;;;;;;;;;;;19.80;81.60;;;;;;5022362;28;19913;-68
2022/07/23 02:05:24;;;;;;;;;;;19.80;81.70;;;;;;5014323;28;19963;-68
2022/07/23 02:07:49;;;;;;;;;;;19.80;81.80;;;;;;5020644;28;19914;-68
2022/07/23 02:10:15;;;;;;;;;;;19.80;81.80;;;;;;5021336;28;19924;-68
2022/07/23 02:12:40;;;;;;;;;;;19.80;81.90;;;;;;5021639;28;19913;-68
2022/07/23 02:15:06;;;;;;;;;;;19.80;82.60;;;;;;5024219;28;19920;-68
2022/07/23 02:17:32;;;;;;;;;;;19.80;82.00;;;;;;5024930;28;19917;-68
2022/07/23 02:19:57;;;;;;;;;;;19.80;82.10;;;;;;5007104;28;19919;-68
2022/07/23 02:22:22;;;;;;;;;;;19.70;81.80;;;;;;5041470;28;19965;-68
2022/07/23 02:24:48;;;;;;;;;;;19.70;82.00;;;;;;5042463;28;19917;-68
2022/07/23 02:27:13;;;;;;;;;;;19.70;82.20;;;;;;5042884;28;20607;-68
2022/07/23 02:29:39;;;;;;;;;;;19.70;82.20;;;;;;5042914;28;20630;-68
2022/07/23 02:32:05;;;;;;;;;;;19.70;82.30;;;;;;5043128;28;19909;-68
2022/07/23 02:34:30;;;;;;;;;;;19.70;82.30;;;;;;5041795;28;19921;-68
2022/07/23 02:36:56;;;;;;;;;;;19.70;82.10;;;;;;5024198;28;19952;-68
2022/07/23 02:39:21;;;;;;;;;;;19.60;82.20;;;;;;5024123;28;19948;-68
2022/07/23 02:41:47;;;;;;;;;;;19.60;82.50;;;;;;5026568;28;19917;-68
2022/07/23 02:44:12;;;;;;;;;;;19.60;82.40;;;;;;5042642;28;20604;-68
2022/07/23 02:46:37;;;;;;;;;;;19.60;82.50;;;;;;5038245;28;19966;-68
2022/07/23 02:49:04;;;;;;;;;;;19.60;82.20;;;;;;5024469;28;19921;-68
2022/07/23 02:51:30;;;;;;;;;;;19.60;82.30;;;;;;5024593;28;20013;-68
2022/07/23 02:53:55;;;;;;;;;;;19.60;82.50;;;;;;5024614;28;20000;-68
2022/07/23 02:56:21;;;;;;;;;;;19.60;82.60;;;;;;5024160;28;20333;-68
2022/07/23 02:58:46;;;;;;;;;;;19.60;82.70;;;;;;5023867;28;19998;-68
2022/07/23 03:01:12;;;;;;;;;;;19.50;82.50;;;;;;5023803;28;19917;-68
2022/07/23 03:03:37;;;;;;;;;;;19.50;82.60;;;;;;5006347;28;20373;-68
2022/07/23 03:06:03;;;;;;;;;;;19.50;82.70;;;;;;5024259;28;19913;-68
2022/07/23 03:08:28;;;;;;;;;;;19.50;82.80;;;;;;5023429;28;19917;-68
2022/07/23 03:10:54;;;;;;;;;;;19.50;82.80;;;;;;5024331;28;19913;-68
2022/07/23 03:13:19;;;;;;;;;;;19.50;82.90;;;;;;5024091;28;19913;-68
2022/07/23 03:15:45;;;;;;;;;;;19.40;82.70;;;;;;5024132;28;19913;-68
2022/07/23 03:18:10;;;;;;;;;;;19.40;83.50;;;;;;5023703;28;20633;-68
2022/07/23 03:20:36;;;;;;;;;;;19.40;82.90;;;;;;5006018;28;19986;-68
2022/07/23 03:23:02;;;;;;;;;;;19.40;82.90;;;;;;5024001;28;19917;-68
2022/07/23 03:25:27;;;;;;;;;;;19.40;83.00;;;;;;5004262;28;19917;-68
2022/07/23 03:27:53;;;;;;;;;;;19.40;83.20;;;;;;5023477;28;19932;-68
2022/07/23 03:30:18;;;;;;;;;;;19.40;83.00;;;;;;5023478;28;19944;-68
2022/07/23 03:32:44;;;;;;;;;;;19.30;83.10;;;;;;5023559;28;19958;-68
2022/07/23 03:35:10;;;;;;;;;;;19.30;83.30;;;;;;5023681;28;19920;-68
2022/07/23 03:37:35;;;;;;;;;;;19.30;83.30;;;;;;5023648;28;19910;-68
2022/07/23 03:40:01;;;;;;;;;;;19.30;83.30;;;;;;5038430;28;19909;-68
2022/07/23 03:42:27;;;;;;;;;;;19.30;83.10;;;;;;5024834;28;19917;-68
2022/07/23 03:44:52;;;;;;;;;;;19.30;83.30;;;;;;5023495;28;19957;-68
2022/07/23 03:47:21;;;;;;;;;;;19.20;83.40;;;;;;5023240;28;19966;-68
2022/07/23 03:49:47;;;;;;;;;;;19.20;83.50;;;;;;5019985;28;19978;-68
2022/07/23 03:52:13;;;;;;;;;;;19.20;84.10;;;;;;5019274;28;20601;-68
2022/07/23 03:54:38;;;;;;;;;;;19.20;83.50;;;;;;5023470;28;19910;-68
2022/07/23 03:57:04;;;;;;;;;;;19.20;83.70;;;;;;5037850;28;20364;-68
2022/07/23 03:59:29;;;;;;;;;;;19.10;83.50;;;;;;5022841;28;19914;-68
2022/07/23 04:01:55;;;;;;;;;;;19.10;83.30;;;;;;5023485;28;19974;-68
2022/07/23 04:04:20;;;;;;;;;;;19.10;83.30;;;;;;5023455;28;19913;-68
2022/07/23 04:06:46;;;;;;;;;;;19.10;83.40;;;;;;5023009;28;19955;-68
2022/07/23 04:09:11;;;;;;;;;;;19.10;83.50;;;;;;5023304;28;19922;-68
2022/07/23 04:11:37;;;;;;;;;;;19.10;83.50;;;;;;5023400;28;19913;-68
2022/07/23 04:14:02;;;;;;;;;;;19.10;83.70;;;;;;5023072;28;19963;-68
2022/07/23 04:16:28;;;;;;;;;;;19.10;83.80;;;;;;5022793;28;19917;-68
2022/07/23 04:18:54;;;;;;;;;;;19.10;83.80;;;;;;5023009;28;19917;-68
2022/07/23 04:21:19;;;;;;;;;;;19.10;83.60;;;;;;5022997;28;19944;-68
2022/07/23 04:23:45;;;;;;;;;;;19.00;83.80;;;;;;5022813;28;19913;-68
2022/07/23 04:26:10;;;;;;;;;;;19.00;83.70;;;;;;5030157;28;20440;-68
2022/07/23 04:28:36;;;;;;;;;;;19.00;83.50;;;;;;5040629;28;19966;-68
2022/07/23 04:31:02;;;;;;;;;;;19.00;83.90;;;;;;5034284;28;19917;-68
2022/07/23 04:33:27;;;;;;;;;;;19.00;83.80;;;;;;5022116;28;19917;-68
2022/07/23 04:35:53;;;;;;;;;;;19.10;83.60;;;;;;5004081;28;19913;-68
2022/07/23 04:38:18;;;;;;;;;;;19.00;83.80;;;;;;5025622;28;19913;-68
2022/07/23 04:40:43;;;;;;;;;;;19.00;83.70;;;;;;5022661;28;19913;-68
2022/07/23 04:43:09;;;;;;;;;;;19.00;83.80;;;;;;5041270;28;19913;-68
2022/07/23 04:45:34;;;;;;;;;;;19.00;83.90;;;;;;5040844;28;19973;-68
2022/07/23 04:48:01;;;;;;;;;;;19.00;83.70;;;;;;5028754;28;19917;-68
2022/07/23 04:50:26;;;;;;;;;;;19.00;84.10;;;;;;5022992;28;19913;-68
2022/07/23 04:52:52;;;;;;;;;;;19.00;83.90;;;;;;5023117;28;19993;-68
2022/07/23 04:55:17;;;;;;;;;;;19.00;84.10;;;;;;5041011;28;19913;-68
2022/07/23 04:57:43;;;;;;;;;;;19.00;84.00;;;;;;5040811;28;19913;-68
2022/07/23 05:00:09;;;;;;;;;;;19.10;83.90;;;;;;5040523;28;19912;-68
2022/07/23 05:02:34;;;;;;;;;;;19.10;83.90;;;;;;5038652;28;19924;-68
2022/07/23 05:05:00;;;;;;;;;;;19.10;83.80;;;;;;5029173;28;19917;-68
2022/07/23 05:07:25;;;;;;;;;;;19.10;83.90;;;;;;5023266;28;20532;-68
2022/07/23 05:09:51;;;;;;;;;;;19.00;83.90;;;;;;5019712;28;19985;-68
2022/07/23 05:12:16;;;;;;;;;;;19.10;84.10;;;;;;5019331;28;19928;-68
2022/07/23 05:14:42;;;;;;;;;;;19.10;84.10;;;;;;5019631;28;19925;-68
2022/07/23 05:17:07;;;;;;;;;;;19.10;84.00;;;;;;5019809;28;19913;-68
2022/07/23 05:19:33;;;;;;;;;;;19.10;84.30;;;;;;5020893;28;20409;-68
2022/07/23 05:21:59;;;;;;;;;;;19.10;84.10;;;;;;5020546;28;20301;-68
2022/07/23 05:24:24;;;;;;;;;;;19.00;84.00;;;;;;5020512;28;19913;-68
2022/07/23 05:26:50;;;;;;;;;;;19.10;84.10;;;;;;5036523;28;19917;-68
2022/07/23 05:29:16;;;;;;;;;;;19.10;84.10;;;;;;5020524;28;19913;-68
2022/07/23 05:31:41;;;;;;;;;;;19.00;84.00;;;;;;5020358;28;19936;-68
2022/07/23 05:34:07;;;;;;;;;;;19.00;84.10;;;;;;5021051;28;19921;-68
2022/07/23 05:36:32;;;;;;;;;;;19.00;84.00;;;;;;5016631;28;19970;-68
2022/07/23 05:38:58;;;;;;;;;;;19.00;84.00;;;;;;5021770;28;20346;-68
2022/07/23 05:41:23;;;;;;;;;;;19.00;84.00;;;;;;5021196;28;19913;-68
2022/07/23 05:43:49;;;;;;;;;;;19.00;84.40;;;;;;5021201;28;20627;-68
2022/07/23 05:46:14;;;;;;;;;;;19.00;84.20;;;;;;5021035;28;19985;-68
2022/07/23 05:48:41;;;;;;;;;;;19.00;83.90;;;;;;5022195;28;19932;-68
2022/07/23 05:51:07;;;;;;;;;;;19.00;84.00;;;;;;5024913;28;19915;-69
2022/07/23 05:53:33;;;;;;;;;;;19.00;84.10;;;;;;5024007;28;20361;-69
2022/07/23 05:55:59;;;;;;;;;;;19.10;84.00;;;;;;5024168;28;19913;-68
2022/07/23 05:58:25;;;;;;;;;;;19.00;83.90;;;;;;5024364;28;19986;-69
2022/07/23 06:00:50;;;;;;;;;;;19.10;84.00;;;;;;5024872;28;20004;-68
2022/07/23 06:03:16;;;;;;;;;;;19.10;84.10;;;;;;5024849;28;19913;-69
2022/07/23 06:05:41;;;;;;;;;;;19.10;84.10;;;;;;5029554;28;20272;-68
2022/07/23 06:08:10;;;;;;;;;;;19.10;84.20;;;;;;5023871;28;20357;-68
2022/07/23 06:10:35;;;;;;;;;;;19.10;84.10;;;;;;5025960;28;19921;-69
2022/07/23 06:13:01;;;;;;;;;;;19.10;84.30;;;;;;5042823;28;19913;-69
2022/07/23 06:15:26;;;;;;;;;;;19.10;84.20;;;;;;5043232;28;19923;-68
2022/07/23 06:17:52;;;;;;;;;;;19.10;84.30;;;;;;5028448;28;19917;-69
2022/07/23 06:20:17;;;;;;;;;;;19.20;84.30;;;;;;5024393;28;19913;-69
2022/07/23 06:22:43;;;;;;;;;;;19.20;84.10;;;;;;5024520;28;19927;-69
2022/07/23 06:25:08;;;;;;;;;;;19.20;84.30;;;;;;5031387;28;20502;-69
2022/07/23 06:27:34;;;;;;;;;;;19.30;84.10;;;;;;5038113;28;19921;-69
2022/07/23 06:29:59;;;;;;;;;;;19.30;84.20;;;;;;5024523;28;19923;-68
2022/07/23 06:32:25;;;;;;;;;;;19.30;84.20;;;;;;5043203;28;20442;-69
2022/07/23 06:34:50;;;;;;;;;;;19.30;84.30;;;;;;5039782;28;19918;-69
2022/07/23 06:37:16;;;;;;;;;;;19.30;84.20;;;;;;5023992;28;19924;-68
2022/07/23 06:39:42;;;;;;;;;;;19.30;84.20;;;;;;5036306;28;19913;-68
2022/07/23 06:42:07;;;;;;;;;;;19.30;84.30;;;;;;5043000;28;19916;-69
2022/07/23 06:44:33;;;;;;;;;;;19.30;84.20;;;;;;5022890;28;19916;-69
2022/07/23 06:46:58;;;;;;;;;;;19.30;84.10;;;;;;5025672;28;19969;-69
2022/07/23 06:49:24;;;;;;;;;;;19.40;84.00;;;;;;5024051;28;19917;-68
2022/07/23 06:51:49;;;;;;;;;;;19.40;84.00;;;;;;5023460;28;20001;-69
2022/07/23 06:54:15;;;;;;;;;;;19.40;84.10;;;;;;5020845;28;20514;-69
2022/07/23 06:56:41;;;;;;;;;;;19.50;84.10;;;;;;5022579;28;19920;-69
2022/07/23 06:59:06;;;;;;;;;;;19.50;84.00;;;;;;5023900;28;19913;-69
2022/07/23 07:01:32;;;;;;;;;;;19.50;84.10;;;;;;5025619;28;19923;-69
2022/07/23 07:03:57;;;;;;;;;;;19.60;84.20;;;;;;5042300;28;19912;-69
2022/07/23 07:06:23;;;;;;;;;;;19.60;83.90;;;;;;5026973;28;19920;-69
2022/07/23 07:08:48;;;;;;;;;;;19.60;84.00;;;;;;5023454;28;19924;-69
2022/07/23 07:11:14;;;;;;;;;;;19.60;84.00;;;;;;5023964;28;19989;-69
2022/07/23 07:13:39;;;;;;;;;;;19.60;83.70;;;;;;5024234;28;19991;-69
2022/07/23 07:16:05;;;;;;;;;;;19.70;83.60;;;;;;5023765;28;20016;-69
2022/07/23 07:18:31;;;;;;;;;;;19.70;83.50;;;;;;5031624;28;20364;-69
2022/07/23 07:20:56;;;;;;;;;;;19.70;83.30;;;;;;5041069;28;19956;-69
2022/07/23 07:23:22;;;;;;;;;;;19.70;83.40;;;;;;5042456;28;19974;-69
2022/07/23 07:25:48;;;;;;;;;;;19.80;83.40;;;;;;5018435;28;20341;-69
2022/07/23 07:28:13;;;;;;;;;;;19.80;83.50;;;;;;5023325;28;19941;-69
2022/07/23 07:30:39;;;;;;;;;;;19.80;83.40;;;;;;5023799;28;20624;-69
2022/07/23 07:33:04;;;;;;;;;;;19.80;83.30;;;;;;5023655;28;19913;-69
2022/07/23 07:35:32;;;;;;;;;;;19.80;83.50;;;;;;5022521;28;20338;-69
2022/07/23 07:37:58;;;;;;;;;;;19.80;83.50;;;;;;5022730;28;20341;-69
2022/07/23 07:40:23;;;;;;;;;;;19.80;83.30;;;;;;5042315;28;19913;-69
2022/07/23 07:42:49;;;;;;;;;;;19.90;84.00;;;;;;5041651;28;19916;-69
2022/07/23 07:45:15;;;;;;;;;;;19.90;84.00;;;;;;5021277;28;19921;-69
2022/07/23 07:47:41;;;;;;;;;;;19.90;83.10;;;;;;5023443;28;19981;-69
2022/07/23 07:50:07;;;;;;;;;;;19.90;83.20;;;;;;5023705;28;19924;-69
2022/07/23 07:52:34;;;;;;;;;;;19.90;83.10;;;;;;5005522;28;19917;-69
2022/07/23 07:54:59;;;;;;;;;;;20.00;83.20;;;;;;5023493;28;19913;-69
2022/07/23 07:57:24;;;;;;;;;;;20.00;83.00;;;;;;5025342;28;20291;-69
2022/07/23 07:59:50;;;;;;;;;;;20.00;82.80;;;;;;5041296;28;19952;-69
2022/07/23 08:02:15;;;;;;;;;;;20.10;82.80;;;;;;5041199;28;19988;-69
2022/07/23 08:04:41;;;;;;;;;;;20.10;82.60;;;;;;5039832;28;19940;-69
2022/07/23 08:07:06;;;;;;;;;;;20.10;82.40;;;;;;5022927;28;19920;-69
2022/07/23 08:09:32;;;;;;;;;;;20.10;82.50;;;;;;5039191;28;20101;-69
2022/07/23 08:11:57;;;;;;;;;;;20.10;82.40;;;;;;5040747;28;19913;-69
2022/07/23 08:14:23;;;;;;;;;;;20.20;82.50;;;;;;5041628;28;19908;-69
2022/07/23 08:16:48;;;;;;;;;;;20.20;82.50;;;;;;5035768;28;20441;-69
2022/07/23 08:19:14;;;;;;;;;;;20.20;82.30;;;;;;5022593;28;19909;-69
2022/07/23 08:21:39;;;;;;;;;;;20.20;82.20;;;;;;5022750;28;19958;-69
2022/07/23 08:24:05;;;;;;;;;;;20.30;82.10;;;;;;5011423;28;19972;-69
2022/07/23 08:26:30;;;;;;;;;;;20.30;82.10;;;;;;5028241;28;20528;-69
2022/07/23 08:28:56;;;;;;;;;;;20.30;81.80;;;;;;5023231;28;19958;-69
2022/07/23 08:31:21;;;;;;;;;;;20.30;82.00;;;;;;5024242;28;19928;-69
2022/07/23 08:33:47;;;;;;;;;;;20.30;81.90;;;;;;5023409;28;20601;-68
2022/07/23 08:36:12;;;;;;;;;;;20.30;81.70;;;;;;5032238;28;19917;-69
2022/07/23 08:38:38;;;;;;;;;;;20.40;81.60;;;;;;5022292;28;19913;-69
2022/07/23 08:41:05;;;;;;;;;;;20.40;81.40;;;;;;5023252;28;20004;-69
2022/07/23 08:43:32;;;;;;;;;;;20.40;81.40;;;;;;5041465;28;19909;-69
2022/07/23 08:45:59;;;;;;;;;;;20.40;82.00;;;;;;5038903;28;19924;-68
2022/07/23 08:48:25;;;;;;;;;;;20.40;81.50;;;;;;5023093;28;20408;-68
2022/07/23 08:50:53;;;;;;;;;;;20.40;81.30;;;;;;5022727;28;20387;-69
2022/07/23 08:53:21;;;;;;;;;;;20.40;81.20;;;;;;5022110;28;20414;-69
2022/07/23 08:55:48;;;;;;;;;;;20.40;81.10;;;;;;5022320;28;19913;-69
2022/07/23 08:58:14;;;;;;;;;;;20.50;81.10;;;;;;5023799;28;20721;-69
2022/07/23 09:00:40;;;;;;;;;;;20.50;80.90;;;;;;5040902;28;20024;-69
2022/07/23 09:03:05;;;;;;;;;;;20.50;80.90;;;;;;5039812;28;20011;-69
2022/07/23 09:05:31;;;;;;;;;;;20.50;81.00;;;;;;5013672;28;19913;-69
2022/07/23 09:08:10;;;;;;;;;;;20.50;80.80;;;;;;5021896;28;20290;-69
2022/07/23 09:10:42;;;;;;;;;;;20.60;80.70;;;;;;5022636;28;19917;-69
2022/07/23 09:13:22;;;;;;;;;;;20.60;80.30;;;;;;5022426;28;19965;-69
2022/07/23 09:15:51;;;;;;;;;;;20.60;80.40;;;;;;5031581;28;19994;-69
2022/07/23 09:18:17;;;;;;;;;;;20.70;80.30;;;;;;5023495;28;20011;-69
2022/07/23 09:20:43;;;;;;;;;;;20.80;80.10;;;;;;5027098;28;20774;-69
2022/07/23 09:23:08;;;;;;;;;;;20.80;79.90;;;;;;5039598;28;19913;-69
2022/07/23 09:25:34;;;;;;;;;;;20.80;79.70;;;;;;5040728;28;19909;-69
2022/07/23 09:28:02;;;;;;;;;;;20.90;79.60;;;;;;5040177;28;19909;-69
2022/07/23 09:30:32;;;;;;;;;;;20.80;79.70;;;;;;5040471;28;19960;-69
2022/07/23 09:33:05;;;;;;;;;;;20.80;79.60;;;;;;5036528;28;19917;-69
2022/07/23 09:35:50;;;;;;;;;;;20.80;79.70;;;;;;5031956;28;19917;-69
2022/07/23 09:38:17;;;;;;;;;;;20.80;79.70;;;;;;5022818;28;19920;-69
2022/07/23 09:40:43;;;;;;;;;;;20.80;79.50;;;;;;5040011;28;19923;-69
2022/07/23 09:43:08;;;;;;;;;;;20.90;79.30;;;;;;5021896;28;19920;-69
2022/07/23 09:45:35;;;;;;;;;;;21.00;79.10;;;;;;5040599;28;19921;-69
2022/07/23 09:48:14;;;;;;;;;;;21.00;78.70;;;;;;5007748;28;19941;-69
2022/07/23 09:50:40;;;;;;;;;;;21.00;78.70;;;;;;5022098;28;19921;-69
2022/07/23 09:53:06;;;;;;;;;;;21.10;78.50;;;;;;5021860;28;19920;-69
2022/07/23 09:55:38;;;;;;;;;;;21.20;78.40;;;;;;5022260;28;19936;-69
2022/07/23 09:58:12;;;;;;;;;;;21.20;78.20;;;;;;5016867;28;19913;-69
2022/07/23 10:00:38;;;;;;;;;;;21.30;78.10;;;;;;5019998;28;19913;-70
2022/07/23 10:03:05;;;;;;;;;;;21.30;78.00;;;;;;5019650;28;19920;-69
2022/07/23 10:05:31;;;;;;;;;;;21.30;77.80;;;;;;5022671;28;19925;-69
2022/07/23 10:07:57;;;;;;;;;;;21.40;77.70;;;;;;5025379;28;20292;-69
2022/07/23 10:10:26;;;;;;;;;;;21.40;77.40;;;;;;5020964;28;19924;-69
2022/07/23 10:15:20;;;;;;;;;;;21.50;77.40;;;;;;5034468;28;19913;-69
2022/07/23 10:17:46;;;;;;;;;;;21.50;77.30;;;;;;5025868;28;19931;-69
2022/07/23 10:20:11;;;;;;;;;;;21.40;77.30;;;;;;5020779;28;19928;-69
2022/07/23 10:22:38;;;;;;;;;;;21.50;77.50;;;;;;5004254;28;19909;-70
2022/07/23 10:25:04;;;;;;;;;;;21.60;77.40;;;;;;5039889;28;19982;-69
2022/07/23 10:27:41;;;;;;;;;;;21.60;77.00;;;;;;5039560;28;19960;-70
2022/07/23 10:30:11;;;;;;;;;;;21.60;76.60;;;;;;5040183;28;19924;-70
2022/07/23 10:32:36;;;;;;;;;;;21.70;76.90;;;;;;5040463;28;19919;-70
2022/07/23 10:35:05;;;;;;;;;;;21.70;76.60;;;;;;5029108;28;19917;-69
2022/07/23 10:37:34;;;;;;;;;;;21.80;76.10;;;;;;5026233;28;19913;-70
2022/07/23 10:40:09;;;;;;;;;;;21.90;76.70;;;;;;5032285;28;19920;-70
2022/07/23 10:42:35;;;;;;;;;;;21.90;76.40;;;;;;5042015;28;20318;-70
2022/07/23 10:45:00;;;;;;;;;;;22.00;76.00;;;;;;5027109;28;19935;-70
2022/07/23 10:47:39;;;;;;;;;;;22.00;76.20;;;;;;5026028;28;19912;-70
2022/07/23 10:50:27;;;;;;;;;;;22.10;76.00;;;;;;5023946;28;20320;-70
2022/07/23 10:53:12;;;;;;;;;;;22.20;75.80;;;;;;5042293;28;19934;-70
2022/07/23 10:55:37;;;;;;;;;;;22.30;75.70;;;;;;5023276;28;19920;-70
2022/07/23 10:58:04;;;;;;;;;;;22.40;75.40;;;;;;5042176;28;19913;-70
2022/07/23 11:00:30;;;;;;;;;;;22.50;75.30;;;;;;5042512;28;20230;-70
2022/07/23 11:02:58;;;;;;;;;;;22.60;75.10;;;;;;5024488;28;19913;-70
2022/07/23 11:05:43;;;;;;;;;;;22.70;75.00;;;;;;5034423;28;20038;-70
2022/07/23 11:08:12;;;;;;;;;;;22.80;74.80;;;;;;5023887;28;19913;-70
2022/07/23 11:10:48;;;;;;;;;;;22.90;74.70;;;;;;5024480;28;19977;-70
2022/07/23 11:13:32;;;;;;;;;;;23.00;74.50;;;;;;5040537;28;19948;-70
2022/07/23 11:16:00;;;;;;;;;;;23.10;74.20;;;;;;5042464;28;20020;-69
2022/07/23 11:18:44;;;;;;;;;;;23.20;74.20;;;;;;5024015;28;20516;-70
2022/07/23 11:21:29;;;;;;;;;;;23.30;74.00;;;;;;5024054;28;19919;-69
2022/07/23 11:23:57;;;;;;;;;;;23.40;74.20;;;;;;5022233;28;19940;-70
2022/07/23 11:26:41;;;;;;;;;;;23.50;74.20;;;;;;5023228;28;20512;-70
2022/07/23 11:29:25;;;;;;;;;;;23.50;74.10;;;;;;5041873;28;20559;-70
2022/07/23 11:31:56;;;;;;;;;;;23.40;74.00;;;;;;5042104;28;20341;-70
2022/07/23 11:34:28;;;;;;;;;;;23.60;74.40;;;;;;5040751;28;19969;-70
2022/07/23 11:36:53;;;;;;;;;;;23.60;74.50;;;;;;5049522;28;20391;-70
2022/07/23 11:39:20;;;;;;;;;;;23.70;74.30;;;;;;5037507;28;19913;-70
2022/07/23 11:41:45;;;;;;;;;;;23.80;74.00;;;;;;5040884;28;19913;-70
2022/07/23 11:44:27;;;;;;;;;;;23.90;73.70;;;;;;5041385;28;19924;-70
2022/07/23 11:47:00;;;;;;;;;;;24.00;74.00;;;;;;5034348;28;20527;-70
2022/07/23 11:49:26;;;;;;;;;;;24.10;73.80;;;;;;5005094;28;19924;-70
2022/07/23 11:52:08;;;;;;;;;;;24.10;73.60;;;;;;5023171;28;19917;-70
2022/07/23 11:54:35;;;;;;;;;;;24.10;73.50;;;;;;5022873;28;19928;-69
2022/07/23 11:57:01;;;;;;;;;;;24.00;74.80;;;;;;5023179;28;19959;-70
2022/07/23 11:59:28;;;;;;;;;;;24.10;73.70;;;;;;5023517;28;20042;-70
2022/07/23 12:02:01;;;;;;;;;;;24.20;73.60;;;;;;5023642;28;19913;-70
2022/07/23 12:04:57;;;;;;;;;;;24.30;73.80;;;;;;5023083;28;20000;-70
2022/07/23 12:07:32;;;;;;;;;;;24.40;73.60;;;;;;5029977;28;19921;-70
2022/07/23 12:09:59;;;;;;;;;;;24.50;72.90;;;;;;5030055;28;20600;-70
2022/07/23 12:12:24;;;;;;;;;;;24.60;73.00;;;;;;5023427;28;20455;-70
2022/07/23 12:14:53;;;;;;;;;;;24.60;72.70;;;;;;5041364;28;19965;-70
2022/07/23 12:17:18;;;;;;;;;;;24.70;73.40;;;;;;5031669;28;19920;-70
2022/07/23 12:19:44;;;;;;;;;;;24.70;73.10;;;;;;5023479;28;19913;-70
2022/07/23 12:22:10;;;;;;;;;;;24.80;73.50;;;;;;5022773;28;19953;-70
2022/07/23 12:24:54;;;;;;;;;;;24.90;72.90;;;;;;5023069;28;20039;-70
2022/07/23 12:27:21;;;;;;;;;;;24.90;72.80;;;;;;5022491;28;19913;-70
2022/07/23 12:29:46;;;;;;;;;;;25.00;72.90;;;;;;5041119;28;19931;-70
2022/07/23 12:32:22;;;;;;;;;;;25.10;72.90;;;;;;5021062;28;19942;-70
2022/07/23 12:35:01;;;;;;;;;;;25.10;72.50;;;;;;5020784;28;20328;-70
2022/07/23 12:37:33;;;;;;;;;;;25.20;72.40;;;;;;5022387;28;19913;-70
2022/07/23 12:40:17;;;;;;;;;;;25.30;72.10;;;;;;5022009;28;19954;-70
2022/07/23 12:42:43;;;;;;;;;;;25.30;72.20;;;;;;5032478;28;19920;-70
2022/07/23 12:45:10;;;;;;;;;;;25.30;72.40;;;;;;5026007;28;19917;-70
2022/07/23 12:47:54;;;;;;;;;;;25.40;72.30;;;;;;5031739;27;19917;-70
2022/07/23 12:50:38;;;;;;;;;;;25.50;72.70;;;;;;5019993;28;20598;-70
2022/07/23 12:53:05;;;;;;;;;;;25.60;72.40;;;;;;5022780;28;19997;-70
2022/07/23 12:55:30;;;;;;;;;;;25.60;72.70;;;;;;5018330;28;19913;-70
2022/07/23 12:58:06;;;;;;;;;;;25.60;72.60;;;;;;5022852;28;20306;-70
2022/07/23 13:00:32;;;;;;;;;;;25.70;72.30;;;;;;5035014;28;19917;-70
2022/07/23 13:02:58;;;;;;;;;;;25.70;72.10;;;;;;5022249;28;20320;-70
2022/07/23 13:05:23;;;;;;;;;;;25.70;71.80;;;;;;5033133;28;19913;-70
2022/07/23 13:07:49;;;;;;;;;;;25.80;72.60;;;;;;5021974;28;20388;-70
2022/07/23 13:10:14;;;;;;;;;;;25.90;72.10;;;;;;5022103;28;19921;-70
2022/07/23 13:12:40;;;;;;;;;;;25.90;71.70;;;;;;5021769;28;19917;-70
2022/07/23 13:15:06;;;;;;;;;;;26.00;70.00;;;;;;5022058;28;20001;-70
2022/07/23 13:17:31;;;;;;;;;;;26.10;70.80;;;;;;5033866;28;19935;-70
2022/07/23 13:19:57;;;;;;;;;;;26.20;71.40;;;;;;5040412;28;19913;-70
2022/07/23 13:22:22;;;;;;;;;;;26.30;72.00;;;;;;5039717;28;19985;-70
2022/07/23 13:24:48;;;;;;;;;;;26.20;71.50;;;;;;5025499;28;19925;-70
2022/07/23 13:27:13;;;;;;;;;;;26.20;71.20;;;;;;5026951;28;19917;-70
2022/07/23 13:29:39;;;;;;;;;;;26.30;70.90;;;;;;5039964;28;20234;-70
2022/07/23 13:32:04;;;;;;;;;;;26.20;71.40;;;;;;5032617;28;19975;-70
2022/07/23 13:34:30;;;;;;;;;;;26.30;70.70;;;;;;5021152;28;19986;-70
2022/07/23 13:36:55;;;;;;;;;;;26.40;70.80;;;;;;5021501;28;19921;-70
2022/07/23 13:39:21;;;;;;;;;;;26.40;70.50;;;;;;5013606;28;19913;-69
2022/07/23 13:41:46;;;;;;;;;;;26.50;70.50;;;;;;5021194;28;19925;-70
2022/07/23 13:44:12;;;;;;;;;;;26.50;70.40;;;;;;5021085;28;20241;-70
2022/07/23 13:46:37;;;;;;;;;;;26.60;69.90;;;;;;5020055;28;19932;-70
2022/07/23 13:49:03;;;;;;;;;;;26.70;69.80;;;;;;5021846;28;19925;-70
2022/07/23 13:51:28;;;;;;;;;;;26.70;69.60;;;;;;5020871;28;19913;-70
2022/07/23 13:53:54;;;;;;;;;;;26.80;69.20;;;;;;5012790;28;19971;-70
2022/07/23 13:56:19;;;;;;;;;;;26.90;69.00;;;;;;5008900;28;19913;-70
2022/07/23 13:58:45;;;;;;;;;;;26.90;68.80;;;;;;5021224;28;19940;-70
2022/07/23 14:01:11;;;;;;;;;;;26.90;68.30;;;;;;5021528;28;19926;-70
2022/07/23 14:03:36;;;;;;;;;;;27.00;69.30;;;;;;5023656;28;19920;-70
2022/07/23 14:06:02;;;;;;;;;;;27.10;68.90;;;;;;5006031;28;19921;-70
2022/07/23 14:08:27;;;;;;;;;;;27.10;68.40;;;;;;5020643;28;19927;-70
2022/07/23 14:10:53;;;;;;;;;;;27.20;68.20;;;;;;5024255;28;19925;-70
2022/07/23 14:13:18;;;;;;;;;;;27.30;68.30;;;;;;5023935;28;19944;-70
2022/07/23 14:15:44;;;;;;;;;;;27.40;67.70;;;;;;5024529;28;19913;-70
2022/07/23 14:18:09;;;;;;;;;;;27.40;67.40;;;;;;5024363;28;19993;-70